Airfield :
LOGIN :

Register | Disclaimer

   EN    FR    IT 

 










Legend :    VFR   Marginal VFR   IFR   Intensive IFR   Very Intensive IFR
Visi :
Ceiling :
>= 8 km
>= 3000ft
5 to 8 km
1000 to 3000 ft
1500m to 5 km
500 to 1000 ft
800 to 1500m
200 to 500 ft
< 800m
< 200 ft
Symbols :   Thunderstorms  Fog  Heavy snow  Heavy precipitations  Wind > 20 kt
SIGMETs :     Misc.  Thunderstorms  Icing  Turbulence  Mountain Waves  Volcanic Ashes







- Airport Elevation : 290 ft
- IATA code : ACI
- Download approach charts


EGJA - Alderney

CURRENT METAR :
  • 261220Z 24015KT 5000 BR BKN002 16/16 Q1010

EXPIRED METARs :
  • 261150Z 24017KT 1500 BR BKN001 16/16 Q1010
  • 261120Z 24018KT 1500 BR BKN001 16/16 Q1010
  • 261050Z 24014KT 0900 R26/P1200 FG OVC000 16/16 Q1010
  • 261020Z 24014KT 0200 R26/0325 FG OVC000 16/16 Q1010
  • 260950Z 24016KT 0100 R26/0100 FG OVC000 16/16 Q1010

TAF TAF EGJA
Valid from the 26 at 12:00 until the 26 at 19:00 UTC


261057Z 2612/2619 26017KT 1200 VCFG BKN001
TEMPO 2612/2617 0300 -RADZ BKN000
PROB30
TEMPO 2612/2615 6000 NSW SCT002 BKN012
BECMG 2617/2619 9999 NSW BKN012
No reported NOTAMs for that airfield.



MET'MAP, your aeronautical weather chart ! - Copyright ORBIFLY December 2007 - Disclaimer

ORBIFLY MET'MAP TEAM :

Programming & Development : Alexandra Zaïnal
Concept & Development : Baudouin d'Aumeries
Co-Development & Prog : Marc-Olivier Méhu
Technical & hardware support : Manuel Goepfert

Contact : metmap@orbifly.com




SOURCES & CREDITS :

   NOAA